Time;durP1;ratioP1;P1;durP2;ratioP2;P2;SDS_P1;SDS_P2;PMS_P1;PMS_P2;Temp;Humidity;BMP_temperature;BMP_pressure;BME280_temperature;BME280_humidity;BME280_pressure;Samples;Min_cycle;Max_cycle;Signal;HPM_P1;HPM_P2
2021/08/06 00:00:06;;;;;;;5.22;2.20;;;;;;;14.20;93.11;94889.81;5042670;28;20045;-77
2021/08/06 00:02:32;;;;;;;5.82;2.20;;;;;;;14.16;92.88;94883.59;5041968;28;20044;-78
2021/08/06 00:04:58;;;;;;;3.95;2.40;;;;;;;14.09;93.77;94883.25;5046063;28;20112;-78
2021/08/06 00:07:24;;;;;;;4.88;2.40;;;;;;;14.03;94.15;94886.03;5044141;28;20045;-78
2021/08/06 00:09:50;;;;;;;4.40;2.17;;;;;;;14.11;93.21;94870.50;5044327;28;20100;-78
2021/08/06 00:12:16;;;;;;;5.07;2.22;;;;;;;14.13;93.36;94876.25;5048443;28;20044;-77
2021/08/06 00:14:41;;;;;;;3.75;2.17;;;;;;;14.03;93.43;94878.09;5047302;28;20110;-77
2021/08/06 00:17:07;;;;;;;9.27;2.97;;;;;;;13.97;93.73;94868.72;5028803;28;20458;-78
2021/08/06 00:19:33;;;;;;;7.47;2.20;;;;;;;14.00;93.54;94870.00;5029065;28;20087;-77
2021/08/06 00:21:59;;;;;;;4.10;2.17;;;;;;;14.01;93.14;94867.03;5044623;28;20052;-78
2021/08/06 00:24:24;;;;;;;4.28;2.28;;;;;;;14.04;93.36;94861.13;5050244;28;20044;-78
2021/08/06 00:26:50;;;;;;;3.72;2.00;;;;;;;14.01;93.25;94864.41;5038419;28;20565;-76
2021/08/06 00:29:15;;;;;;;4.25;2.47;;;;;;;13.91;93.46;94859.38;5038748;28;20067;-77
2021/08/06 00:31:41;;;;;;;4.65;2.50;;;;;;;13.91;93.66;94862.03;5039938;28;20041;-77
2021/08/06 00:34:07;;;;;;;7.25;2.50;;;;;;;13.96;92.24;94853.94;5046764;28;20491;-78
2021/08/06 00:36:32;;;;;;;5.13;2.35;;;;;;;13.94;93.15;94860.66;5040586;28;20048;-77
2021/08/06 00:38:58;;;;;;;5.28;2.05;;;;;;;13.85;92.87;94863.25;5050493;28;20045;-78
2021/08/06 00:41:24;;;;;;;4.40;2.00;;;;;;;13.93;92.60;94865.13;5050463;28;20241;-77
2021/08/06 00:43:50;;;;;;;4.20;2.20;;;;;;;13.84;93.30;94859.06;5046717;28;20037;-77
2021/08/06 00:46:16;;;;;;;4.30;2.10;;;;;;;13.88;92.25;94854.72;5032689;28;20053;-77
2021/08/06 00:48:46;;;;;;;4.05;2.40;;;;;;;13.85;92.59;94860.63;5032677;28;20501;-77
2021/08/06 00:51:11;;;;;;;5.55;2.33;;;;;;;13.90;92.52;94857.81;5033908;28;20557;-76
2021/08/06 00:53:37;;;;;;;3.17;2.20;;;;;;;13.85;93.32;94858.75;5046502;28;20080;-77
2021/08/06 00:56:05;;;;;;;4.03;2.30;;;;;;;13.84;92.80;94856.41;5044988;28;20041;-78
2021/08/06 00:58:30;;;;;;;4.45;2.55;;;;;;;13.88;92.64;94853.91;5048292;28;20048;-77
2021/08/06 01:00:56;;;;;;;5.85;2.53;;;;;;;13.81;92.48;94857.03;5032442;28;20042;-78
2021/08/06 01:03:28;;;;;;;6.57;2.40;;;;;;;13.78;92.72;94853.13;5043245;28;20418;-77
2021/08/06 01:06:00;;;;;;;6.47;2.17;;;;;;;13.75;93.52;94858.22;5049902;28;20041;-78
2021/08/06 01:08:54;;;;;;;3.38;2.10;;;;;;;13.75;93.11;94858.22;5032570;28;20052;-77
2021/08/06 01:11:24;;;;;;;5.28;2.20;;;;;;;13.74;92.40;94859.31;5038956;28;20079;-79
2021/08/06 01:13:56;;;;;;;3.33;1.95;;;;;;;13.64;92.92;94849.78;5049005;28;20040;-78
2021/08/06 01:16:27;;;;;;;4.85;2.30;;;;;;;13.61;93.04;94853.81;5030792;28;20045;-78
2021/08/06 01:19:02;;;;;;;5.70;2.35;;;;;;;13.59;92.55;94841.97;5039337;28;20037;-78
2021/08/06 01:21:31;;;;;;;6.68;2.30;;;;;;;13.52;93.71;94856.44;5050042;28;20037;-78
2021/08/06 01:24:00;;;;;;;4.55;2.30;;;;;;;13.40;93.23;94832.41;5034705;28;20044;-78
2021/08/06 01:26:28;;;;;;;6.07;2.30;;;;;;;13.42;93.54;94840.03;5031836;28;20054;-78
2021/08/06 01:28:54;;;;;;;4.78;2.30;;;;;;;13.29;93.87;94841.66;5032102;28;20045;-78
2021/08/06 01:31:28;;;;;;;5.63;2.53;;;;;;;13.39;93.16;94845.94;5032482;28;20099;-78
2021/08/06 01:33:54;;;;;;;6.95;2.20;;;;;;;13.27;93.33;94844.59;5044836;28;20045;-79
2021/08/06 01:36:19;;;;;;;6.70;2.20;;;;;;;13.20;93.64;94838.94;5057340;28;20129;-79
2021/08/06 01:38:45;;;;;;;3.03;2.03;;;;;;;13.28;92.94;94846.16;5045279;28;20041;-78
2021/08/06 01:41:27;;;;;;;4.10;2.42;;;;;;;13.26;92.87;94840.41;5034352;28;20041;-77
2021/08/06 01:44:10;;;;;;;6.82;2.33;;;;;;;13.14;93.12;94834.88;5047849;28;20044;-78
2021/08/06 01:46:48;;;;;;;4.28;2.28;;;;;;;13.11;93.26;94835.50;5041111;28;20049;-77
2021/08/06 01:49:17;;;;;;;5.57;2.38;;;;;;;13.05;93.61;94828.78;5032035;28;20041;-77
2021/08/06 01:51:50;;;;;;;4.40;2.30;;;;;;;13.03;93.62;94829.09;5031226;28;20041;-78
2021/08/06 01:54:18;;;;;;;4.38;2.45;;;;;;;13.03;93.95;94830.94;5049703;28;20051;-78
2021/08/06 01:56:44;;;;;;;11.38;2.58;;;;;;;12.96;94.01;94829.50;5053701;28;20131;-78
2021/08/06 01:59:11;;;;;;;7.25;2.55;;;;;;;12.95;93.71;94819.22;5050036;28;20087;-78
2021/08/06 02:01:38;;;;;;;4.75;2.25;;;;;;;12.99;93.40;94828.88;5047817;28;20037;-77
2021/08/06 02:04:05;;;;;;;6.20;2.25;;;;;;;13.04;92.73;94819.28;5042200;28;20069;-77
2021/08/06 02:06:31;;;;;;;3.90;2.50;;;;;;;12.99;92.77;94818.31;5054396;28;20072;-77
2021/08/06 02:08:57;;;;;;;4.13;2.00;;;;;;;12.94;92.93;94821.09;5031317;28;20049;-77
2021/08/06 02:11:23;;;;;;;4.90;2.53;;;;;;;12.88;93.04;94811.72;5030689;28;20037;-78
2021/08/06 02:13:50;;;;;;;3.53;2.03;;;;;;;12.90;93.13;94809.59;5039499;28;20078;-78
2021/08/06 02:16:17;;;;;;;2.88;1.90;;;;;;;12.82;93.60;94816.34;5053542;28;20049;-77
2021/08/06 02:18:47;;;;;;;3.78;2.10;;;;;;;12.80;93.71;94815.06;5030721;28;20045;-77
2021/08/06 02:21:16;;;;;;;6.20;2.30;;;;;;;12.77;93.77;94815.69;5032473;28;20079;-78
2021/08/06 02:23:46;;;;;;;3.40;2.00;;;;;;;12.77;94.14;94805.13;5052981;28;20507;-77
2021/08/06 02:26:13;;;;;;;3.80;2.42;;;;;;;12.58;95.42;94811.34;5043421;28;20426;-77
2021/08/06 02:28:40;;;;;;;5.55;2.30;;;;;;;12.57;94.31;94809.81;5029409;28;20474;-77
2021/08/06 02:31:06;;;;;;;4.47;2.40;;;;;;;12.43;95.33;94801.94;5030277;28;20038;-76
2021/08/06 02:33:33;;;;;;;5.28;2.45;;;;;;;12.43;95.40;94811.72;5045612;28;20033;-77
2021/08/06 02:35:58;;;;;;;3.88;2.35;;;;;;;12.39;95.31;94808.88;5047876;28;20053;-78
2021/08/06 02:38:24;;;;;;;7.47;2.25;;;;;;;12.18;96.50;94810.38;5030286;28;20048;-77
2021/08/06 02:40:51;;;;;;;7.93;2.40;;;;;;;12.10;96.76;94806.59;5043555;28;20060;-77
2021/08/06 02:43:17;;;;;;;4.47;2.40;;;;;;;11.96;96.59;94798.69;5051144;28;20044;-79
2021/08/06 02:45:50;;;;;;;4.28;2.30;;;;;;;11.89;97.65;94809.59;5044542;28;20053;-78
2021/08/06 02:48:16;;;;;;;4.00;2.55;;;;;;;11.85;98.45;94794.69;5067395;28;20040;-77
2021/08/06 02:50:42;;;;;;;4.03;2.50;;;;;;;11.86;98.54;94804.94;5043322;28;20170;-78
2021/08/06 02:53:08;;;;;;;4.88;2.42;;;;;;;11.85;98.79;94798.13;5046522;28;20468;-78
2021/08/06 02:55:34;;;;;;;4.00;2.30;;;;;;;11.94;98.63;94796.38;5032626;28;20060;-76
2021/08/06 02:58:00;;;;;;;5.88;2.50;;;;;;;12.07;97.94;94804.56;5054787;28;20037;-78
2021/08/06 03:00:26;;;;;;;3.47;2.20;;;;;;;12.09;97.90;94807.66;5038743;28;20049;-77
2021/08/06 03:02:51;;;;;;;3.95;2.10;;;;;;;12.37;96.36;94810.25;5040890;28;20048;-78
2021/08/06 03:05:16;;;;;;;5.05;2.55;;;;;;;12.17;97.65;94804.34;5041454;28;20483;-77
2021/08/06 03:07:52;;;;;;;4.35;2.22;;;;;;;12.04;98.12;94805.13;5049030;28;20071;-78
2021/08/06 03:10:19;;;;;;;4.95;2.33;;;;;;;12.09;96.93;94810.31;5049681;28;20044;-78
2021/08/06 03:12:49;;;;;;;5.55;2.15;;;;;;;12.12;97.23;94807.06;5044074;28;20052;-77
2021/08/06 03:15:16;;;;;;;6.43;2.45;;;;;;;12.28;96.72;94810.16;5038081;28;20056;-78
2021/08/06 03:17:42;;;;;;;4.40;2.40;;;;;;;12.12;96.59;94807.06;5050440;28;20037;-78
2021/08/06 03:20:13;;;;;;;3.40;2.28;;;;;;;12.12;96.72;94802.59;5056792;28;20041;-78
2021/08/06 03:22:40;;;;;;;3.97;2.10;;;;;;;12.19;96.24;94815.38;5043403;28;20044;-78
2021/08/06 03:25:08;;;;;;;5.85;2.35;;;;;;;12.17;96.59;94820.16;5030008;28;20656;-77
2021/08/06 03:27:34;;;;;;;3.78;2.10;;;;;;;12.02;96.23;94807.28;5038482;28;20102;-77
2021/08/06 03:29:59;;;;;;;4.78;2.30;;;;;;;11.81;96.63;94807.69;5042814;28;20048;-77
2021/08/06 03:32:25;;;;;;;5.45;2.35;;;;;;;11.92;97.10;94819.59;5035845;28;20053;-78
2021/08/06 03:34:51;;;;;;;7.40;2.70;;;;;;;11.65;97.31;94809.03;5041686;28;20044;-78
2021/08/06 03:37:17;;;;;;;3.53;2.15;;;;;;;11.75;96.94;94809.63;5038389;28;20130;-78
2021/08/06 03:39:43;;;;;;;3.85;2.40;;;;;;;11.71;97.62;94807.84;5042332;28;20056;-77
2021/08/06 03:42:09;;;;;;;4.25;2.22;;;;;;;11.75;97.33;94814.91;5029639;28;20176;-78
2021/08/06 03:44:35;;;;;;;5.15;2.42;;;;;;;11.76;97.68;94815.69;5030313;28;20041;-77
2021/08/06 03:47:00;;;;;;;5.40;2.20;;;;;;;11.72;97.94;94814.69;5031199;28;20056;-78
2021/08/06 03:49:26;;;;;;;9.25;2.63;;;;;;;11.60;98.10;94823.88;5033827;28;20392;-76
2021/08/06 03:51:51;;;;;;;4.63;2.40;;;;;;;11.68;98.58;94834.81;5027965;28;20041;-78
2021/08/06 03:54:17;;;;;;;6.13;2.63;;;;;;;11.60;98.54;94834.41;5029616;28;20038;-77
2021/08/06 03:56:43;;;;;;;3.55;2.30;;;;;;;11.63;98.57;94827.00;5043758;28;20041;-78
2021/08/06 03:59:08;;;;;;;5.65;2.40;;;;;;;11.70;98.79;94838.72;5035360;28;20056;-78
2021/08/06 04:01:34;;;;;;;3.47;2.17;;;;;;;11.78;98.27;94835.41;5053267;28;20044;-77
2021/08/06 04:03:59;;;;;;;4.50;2.50;;;;;;;11.79;98.64;94841.44;5048184;28;20041;-77
2021/08/06 04:06:25;;;;;;;3.60;2.28;;;;;;;11.80;99.06;94832.47;5039557;28;20045;-78
2021/08/06 04:08:51;;;;;;;3.63;2.08;;;;;;;12.01;98.19;94845.28;5042119;28;20498;-78
2021/08/06 04:11:17;;;;;;;4.78;2.20;;;;;;;12.11;97.13;94837.16;5033685;28;20042;-78
2021/08/06 04:13:42;;;;;;;4.72;2.65;;;;;;;12.10;97.61;94840.88;5032527;28;20410;-77
2021/08/06 04:16:08;;;;;;;3.50;2.10;;;;;;;12.09;97.22;94831.41;5044968;28;20116;-79
2021/08/06 04:18:34;;;;;;;3.63;2.38;;;;;;;12.18;96.97;94828.84;5050531;28;20091;-78
2021/08/06 04:21:00;;;;;;;9.93;2.65;;;;;;;12.26;97.45;94828.94;5042391;28;20045;-78
2021/08/06 04:23:26;;;;;;;7.45;2.28;;;;;;;12.35;95.91;94829.00;5051794;28;20052;-79
2021/08/06 04:25:51;;;;;;;5.20;2.28;;;;;;;12.37;97.09;94834.00;5048537;28;20033;-79
2021/08/06 04:28:17;;;;;;;4.65;2.40;;;;;;;12.28;98.45;94826.78;5057882;28;20487;-78
2021/08/06 04:30:42;;;;;;;3.88;2.40;;;;;;;12.29;98.00;94833.63;5034499;28;20079;-78
2021/08/06 04:33:08;;;;;;;3.47;2.10;;;;;;;12.30;98.72;94829.91;5049432;28;20480;-78
2021/08/06 04:35:34;;;;;;;4.63;2.40;;;;;;;12.50;96.62;94814.72;5036984;28;20044;-78
2021/08/06 04:37:59;;;;;;;8.25;2.28;;;;;;;12.58;95.99;94824.53;5048387;28;20120;-77
2021/08/06 04:40:26;;;;;;;5.90;2.40;;;;;;;12.74;95.40;94821.56;5041131;28;20041;-78
2021/08/06 04:42:51;;;;;;;6.47;2.15;;;;;;;12.80;94.00;94825.63;5032339;28;20045;-78
2021/08/06 04:45:17;;;;;;;4.53;2.40;;;;;;;12.86;93.86;94819.19;5033606;28;20542;-78
2021/08/06 04:47:48;;;;;;;4.05;2.33;;;;;;;12.96;93.18;94829.50;5032396;28;20044;-77
2021/08/06 04:50:15;;;;;;;4.15;2.20;;;;;;;12.94;93.41;94821.09;5032205;28;20037;-78
2021/08/06 04:52:41;;;;;;;6.60;2.38;;;;;;;12.97;93.57;94820.50;5037657;28;20049;-78
2021/08/06 04:55:07;;;;;;;4.72;2.22;;;;;;;13.03;93.61;94813.22;5033878;28;20099;-78
2021/08/06 04:57:33;;;;;;;4.82;2.40;;;;;;;13.12;93.46;94815.94;5043068;28;20037;-78
2021/08/06 04:59:58;;;;;;;3.50;2.20;;;;;;;13.10;93.12;94818.06;5045703;28;20068;-78
2021/08/06 05:02:24;;;;;;;3.20;1.95;;;;;;;13.17;92.29;94815.78;5044099;28;20094;-76
2021/08/06 05:04:49;;;;;;;3.20;2.10;;;;;;;13.05;93.67;94815.56;5046001;28;20050;-77
2021/08/06 05:07:18;;;;;;;6.65;2.50;;;;;;;13.10;93.21;94818.06;5051767;28;20049;-77
2021/08/06 05:09:45;;;;;;;5.93;2.22;;;;;;;13.12;94.09;94815.94;5063580;28;20049;-78
2021/08/06 05:12:10;;;;;;;3.80;2.45;;;;;;;13.16;93.62;94816.88;5033405;28;20766;-77
2021/08/06 05:14:36;;;;;;;3.58;2.00;;;;;;;13.36;92.25;94809.53;5033299;28;20045;-76
2021/08/06 05:17:01;;;;;;;3.92;2.40;;;;;;;13.22;93.36;94818.31;5049600;28;20033;-77
2021/08/06 05:19:27;;;;;;;3.80;2.20;;;;;;;13.27;93.72;94818.16;5057983;28;20048;-78
2021/08/06 05:21:53;;;;;;;4.35;2.25;;;;;;;13.46;91.92;94814.56;5051465;28;20049;-77
2021/08/06 05:24:18;;;;;;;4.35;2.30;;;;;;;13.40;92.38;94821.06;5042771;28;20049;-76
2021/08/06 05:26:44;;;;;;;4.38;2.35;;;;;;;13.36;93.16;94814.81;5032856;28;20119;-76
2021/08/06 05:29:09;;;;;;;4.10;2.70;;;;;;;13.37;92.91;94827.72;5049549;28;20551;-77
2021/08/06 05:31:35;;;;;;;4.50;2.45;;;;;;;13.46;92.70;94825.13;5047387;28;20043;-78
2021/08/06 05:34:00;;;;;;;5.30;2.50;;;;;;;13.46;92.72;94819.84;5052460;28;20468;-77
2021/08/06 05:36:26;;;;;;;7.18;2.50;;;;;;;13.58;92.07;94816.66;5035795;28;20033;-76
2021/08/06 05:38:52;;;;;;;8.13;2.72;;;;;;;13.65;91.96;94823.03;5041492;28;20037;-78
2021/08/06 05:41:17;;;;;;;4.10;2.40;;;;;;;13.70;91.91;94827.41;5032715;28;20037;-79
2021/08/06 05:43:44;;;;;;;6.70;2.50;;;;;;;13.58;92.68;94819.28;5032949;28;20045;-78
2021/08/06 05:46:10;;;;;;;4.47;2.42;;;;;;;13.61;93.71;94822.09;5042636;28;20048;-79
2021/08/06 05:48:35;;;;;;;5.30;2.28;;;;;;;13.77;92.87;94824.34;5053388;28;20063;-79
2021/08/06 05:51:01;;;;;;;5.47;2.45;;;;;;;13.74;92.75;94819.66;5062479;28;20044;-79
2021/08/06 05:53:27;;;;;;;4.97;2.40;;;;;;;13.91;91.23;94826.88;5036082;28;20494;-78
2021/08/06 05:55:52;;;;;;;5.40;2.40;;;;;;;13.89;91.23;94827.16;5033512;28;20033;-77
2021/08/06 05:58:18;;;;;;;4.43;2.50;;;;;;;14.00;91.36;94822.38;5036317;28;20805;-81
2021/08/06 06:00:44;;;;;;;4.82;2.65;;;;;;;14.00;92.00;94817.84;5033540;28;20041;-78
2021/08/06 06:03:09;;;;;;;7.25;2.20;;;;;;;14.23;89.37;94814.34;5038528;28;20096;-79
2021/08/06 06:05:35;;;;;;;4.20;2.40;;;;;;;14.20;89.19;94813.09;5045626;28;20048;-79
2021/08/06 06:08:00;;;;;;;4.90;2.58;;;;;;;14.21;89.68;94818.06;5033875;28;20433;-76
2021/08/06 06:10:26;;;;;;;8.52;2.60;;;;;;;14.29;89.84;94821.81;5041848;28;20033;-79
2021/08/06 06:12:52;;;;;;;3.63;2.22;;;;;;;14.29;89.47;94819.16;5044535;28;20422;-78
2021/08/06 06:15:18;;;;;;;4.18;2.20;;;;;;;14.44;88.73;94811.84;5035515;28;20045;-80
2021/08/06 06:17:44;;;;;;;4.93;2.45;;;;;;;14.45;89.37;94813.41;5037072;28;20041;-78
2021/08/06 06:20:10;;;;;;;5.88;2.40;;;;;;;14.57;87.95;94818.88;5037597;28;20067;-79
2021/08/06 06:22:36;;;;;;;4.00;2.33;;;;;;;14.58;88.29;94819.66;5043652;28;20066;-77
2021/08/06 06:25:02;;;;;;;3.65;2.30;;;;;;;14.72;86.98;94815.81;5040947;28;20154;-77
2021/08/06 06:27:28;;;;;;;5.60;2.53;;;;;;;14.88;86.74;94815.31;5056878;28;20045;-79
2021/08/06 06:29:54;;;;;;;4.72;2.45;;;;;;;14.91;86.86;94822.63;5043304;28;20048;-78
2021/08/06 06:32:19;;;;;;;4.00;2.20;;;;;;;15.09;85.53;94812.78;5035978;28;20051;-78
2021/08/06 06:34:44;;;;;;;3.75;2.30;;;;;;;15.13;86.45;94812.94;5048299;28;20042;-80
2021/08/06 06:37:10;;;;;;;7.72;2.17;;;;;;;15.26;85.31;94817.28;5039946;28;20037;-78
2021/08/06 06:39:36;;;;;;;3.70;2.10;;;;;;;15.44;83.81;94811.94;5037643;28;20045;-78
2021/08/06 06:42:01;;;;;;;3.70;2.20;;;;;;;15.56;82.43;94814.72;5035404;28;20503;-78
2021/08/06 06:44:27;;;;;;;5.95;2.40;;;;;;;15.61;84.12;94817.16;5039769;28;20041;-80
2021/08/06 06:46:52;;;;;;;3.65;2.30;;;;;;;15.79;83.21;94827.72;5050125;28;20036;-81
2021/08/06 06:49:18;;;;;;;9.32;2.30;;;;;;;15.83;82.06;94823.34;5041843;28;20120;-78
2021/08/06 06:51:44;;;;;;;6.85;2.40;;;;;;;15.92;81.63;94826.75;5065851;28;20057;-77
2021/08/06 06:54:09;;;;;;;14.90;2.30;;;;;;;15.99;82.29;94826.22;5055358;28;20045;-78
2021/08/06 06:56:35;;;;;;;4.43;2.40;;;;;;;16.06;83.35;94829.16;5047952;28;20114;-77
2021/08/06 06:59:00;;;;;;;4.30;2.20;;;;;;;16.18;80.91;94823.19;5045084;28;20573;-77
2021/08/06 07:01:26;;;;;;;3.85;2.25;;;;;;;16.15;82.61;94834.41;5038373;28;20522;-79
2021/08/06 07:03:52;;;;;;;4.18;2.50;;;;;;;16.11;82.02;94853.66;5049819;28;20048;-78
2021/08/06 07:06:19;;;;;;;7.32;2.42;;;;;;;15.74;83.83;94853.31;5042352;28;20044;-80
2021/08/06 07:08:45;;;;;;;5.60;2.38;;;;;;;15.35;86.94;94847.19;5044002;28;20071;-79
2021/08/06 07:11:11;;;;;;;4.47;2.35;;;;;;;15.11;89.28;94853.00;5052298;28;20037;-77
2021/08/06 07:13:36;;;;;;;7.57;3.28;;;;;;;14.86;90.58;94851.94;5051714;28;20076;-76
2021/08/06 07:16:02;;;;;;;5.03;2.47;;;;;;;14.75;91.52;94861.28;5037168;28;20055;-76
2021/08/06 07:18:28;;;;;;;6.78;2.60;;;;;;;14.72;91.83;94867.97;5032923;28;20041;-78
2021/08/06 07:20:54;;;;;;;4.50;2.60;;;;;;;14.68;93.13;94878.44;5039569;28;20049;-78
2021/08/06 07:23:19;;;;;;;8.38;3.00;;;;;;;14.64;93.70;94896.03;5034520;28;20049;-84
2021/08/06 07:25:45;;;;;;;5.00;2.60;;;;;;;14.56;93.76;94896.75;5038577;28;20555;-81
2021/08/06 07:28:11;;;;;;;6.18;2.70;;;;;;;14.56;94.35;94907.34;5046792;28;20057;-84
2021/08/06 07:30:37;;;;;;;4.93;2.83;;;;;;;14.65;94.19;94917.97;5043351;28;20115;-82
2021/08/06 07:33:06;;;;;;;4.72;2.67;;;;;;;14.65;94.46;94924.06;5035924;28;20061;-80
2021/08/06 07:35:32;;;;;;;4.68;2.70;;;;;;;14.63;94.24;94910.34;5033904;28;20502;-80
2021/08/06 07:37:59;;;;;;;7.25;2.90;;;;;;;14.65;94.72;94932.00;5031366;28;20057;-80
2021/08/06 07:40:25;;;;;;;4.50;2.88;;;;;;;14.75;95.15;94930.91;5039554;28;20037;-80
2021/08/06 07:42:54;;;;;;;4.10;2.85;;;;;;;14.97;95.44;94927.38;5038902;28;20670;-78
2021/08/06 07:45:21;;;;;;;4.80;2.60;;;;;;;15.18;94.76;94937.34;5034348;28;20051;-78
2021/08/06 07:47:46;;;;;;;5.70;2.80;;;;;;;15.20;93.39;94929.84;5036679;28;20092;-78
2021/08/06 07:50:12;;;;;;;6.30;2.90;;;;;;;15.26;93.22;94931.25;5047712;28;20048;-81
2021/08/06 07:52:38;;;;;;;11.73;3.50;;;;;;;15.21;93.78;94936.72;5038593;28;20491;-78
2021/08/06 07:55:05;;;;;;;7.25;3.20;;;;;;;15.24;93.31;94930.78;5045808;28;20139;-79
2021/08/06 07:57:32;;;;;;;6.95;2.90;;;;;;;15.18;94.03;94937.34;5038821;28;20046;-79
2021/08/06 07:59:57;;;;;;;8.70;3.83;;;;;;;15.16;95.78;94944.84;5030160;28;20136;-79
2021/08/06 08:02:23;;;;;;;6.75;2.97;;;;;;;15.33;93.71;94936.06;5044329;28;20156;-76
2021/08/06 08:04:49;;;;;;;8.43;3.00;;;;;;;15.36;95.36;94928.28;5040834;28;20057;-80
2021/08/06 08:07:15;;;;;;;6.90;3.10;;;;;;;15.38;93.36;94935.94;5033623;28;20045;-76
2021/08/06 08:09:40;;;;;;;6.25;3.15;;;;;;;15.44;94.37;94937.31;5037206;28;20060;-79
2021/08/06 08:12:06;;;;;;;5.78;2.80;;;;;;;15.43;94.59;94925.16;5034833;28;20037;-79
2021/08/06 08:14:34;;;;;;;4.55;3.05;;;;;;;15.50;94.51;94932.63;5035483;28;20069;-77
2021/08/06 08:16:59;;;;;;;4.90;2.85;;;;;;;15.67;93.32;94937.13;5046408;28;20048;-80
2021/08/06 08:19:25;;;;;;;5.55;3.03;;;;;;;15.74;92.74;94943.50;5048552;28;20057;-77
2021/08/06 08:21:51;;;;;;;4.95;2.60;;;;;;;15.90;92.57;94941.16;5041792;28;20061;-79
2021/08/06 08:24:18;;;;;;;5.72;2.90;;;;;;;15.80;93.73;94940.72;5042135;28;20122;-78
2021/08/06 08:26:44;;;;;;;4.93;2.97;;;;;;;15.89;92.32;94934.28;5037244;28;20042;-79
2021/08/06 08:29:09;;;;;;;3.65;2.67;;;;;;;15.85;92.15;94932.59;5039830;28;20118;-79
2021/08/06 08:31:35;;;;;;;5.63;3.00;;;;;;;15.85;92.69;94932.59;5039552;28;20038;-82
2021/08/06 08:34:01;;;;;;;10.90;3.40;;;;;;;15.87;90.99;94927.75;5034103;28;20639;-80
2021/08/06 08:36:27;;;;;;;6.45;2.88;;;;;;;15.94;91.13;94936.00;5037678;28;20041;-81
2021/08/06 08:38:53;;;;;;;5.97;3.00;;;;;;;16.09;92.00;94940.78;5039932;28;20060;-82
2021/08/06 08:41:18;;;;;;;7.30;2.70;;;;;;;16.16;92.24;94931.53;5037522;28;20064;-79
2021/08/06 08:43:44;;;;;;;6.07;2.58;;;;;;;16.19;91.57;94941.53;5042553;28;20057;-81
2021/08/06 08:46:11;;;;;;;4.38;2.80;;;;;;;16.33;91.85;94942.09;5032665;28;20116;-81
2021/08/06 08:48:38;;;;;;;5.70;3.10;;;;;;;16.47;91.78;94938.44;5035146;28;20068;-77
2021/08/06 08:51:04;;;;;;;3.75;2.45;;;;;;;16.59;91.97;94930.53;5042754;28;20076;-81
2021/08/06 08:53:29;;;;;;;3.90;2.40;;;;;;;16.44;89.69;94927.34;5035732;28;20068;-81
2021/08/06 08:55:56;;;;;;;5.05;2.45;;;;;;;16.60;89.92;94934.75;5046117;28;20045;-80
2021/08/06 08:58:22;;;;;;;6.45;2.42;;;;;;;16.63;88.95;94934.13;5051833;28;20087;-81
2021/08/06 09:00:48;;;;;;;4.22;2.65;;;;;;;16.64;89.57;94930.38;5035200;28;20045;-83
2021/08/06 09:03:38;;;;;;;3.40;2.10;;;;;;;16.60;87.83;94934.75;5046839;28;20056;-81
2021/08/06 09:06:04;;;;;;;3.00;2.10;;;;;;;16.71;87.02;94930.66;5050205;28;21294;-83
2021/08/06 09:08:29;;;;;;;3.05;2.10;;;;;;;16.72;88.79;94937.53;5054348;28;20506;-82
2021/08/06 09:10:55;;;;;;;3.40;2.20;;;;;;;16.84;88.40;94928.84;5059817;28;20044;-80
2021/08/06 09:13:24;;;;;;;2.95;2.15;;;;;;;16.84;88.61;94912.09;5059319;28;20102;-82
2021/08/06 09:16:00;;;;;;;3.80;2.30;;;;;;;16.90;88.00;94921.50;5053252;28;20087;-80
2021/08/06 09:18:34;;;;;;;4.55;2.40;;;;;;;16.95;87.80;94923.94;5054689;28;20118;-80
2021/08/06 09:21:00;;;;;;;;;;;;;;;17.07;84.44;94921.34;5039612;28;20045;-81
2021/08/06 09:23:47;;;;;;;4.45;2.28;;;;;;;17.28;86.00;94931.19;5047419;28;19994;-81
2021/08/06 09:26:28;;;;;;;6.18;2.42;;;;;;;17.42;83.82;94931.69;5042553;28;20046;-77
2021/08/06 09:28:57;;;;;;;4.80;2.20;;;;;;;17.49;84.62;94937.25;5048413;28;20037;-80
2021/08/06 09:31:23;;;;;;;3.80;2.33;;;;;;;17.62;84.13;94934.63;5047816;28;20492;-81
2021/08/06 09:33:48;;;;;;;4.15;2.28;;;;;;;17.93;80.74;94938.72;5039302;28;20052;-78
2021/08/06 09:36:17;;;;;;;6.50;2.30;;;;;;;18.03;80.26;94919.69;5044594;28;20045;-78
2021/08/06 09:38:43;;;;;;;3.58;2.03;;;;;;;18.07;77.96;94928.53;5047772;28;20048;-79
2021/08/06 09:41:08;;;;;;;4.85;2.38;;;;;;;18.05;78.98;94936.09;5047773;28;20115;-84
2021/08/06 09:43:34;;;;;;;4.85;2.47;;;;;;;18.10;79.33;94938.56;5042087;28;20050;-79
2021/08/06 09:46:00;;;;;;;4.28;2.33;;;;;;;18.31;76.70;94935.00;5039751;28;20044;-80
2021/08/06 09:48:27;;;;;;;4.50;2.08;;;;;;;18.32;77.17;94928.56;5048548;28;20460;-80
2021/08/06 09:50:53;;;;;;;4.70;2.20;;;;;;;18.53;75.77;94934.56;5052807;28;20033;-81
2021/08/06 09:53:25;;;;;;;6.68;2.30;;;;;;;18.43;73.71;94924.38;5047937;28;20041;-82
2021/08/06 09:55:50;;;;;;;4.15;2.30;;;;;;;18.67;74.90;94928.09;5042750;28;20049;-80
2021/08/06 09:58:22;;;;;;;3.90;2.20;;;;;;;18.93;73.55;94929.66;5037162;28;20107;-80
2021/08/06 10:00:50;;;;;;;4.00;2.20;;;;;;;18.94;72.82;94917.88;5038006;28;20462;-81
2021/08/06 10:03:30;;;;;;;5.40;2.20;;;;;;;19.06;74.03;94925.84;5041701;28;20034;-81
2021/08/06 10:06:15;;;;;;;3.25;2.03;;;;;;;19.18;69.94;94931.16;5037920;28;20643;-82
2021/08/06 10:08:42;;;;;;;3.85;2.30;;;;;;;19.25;71.02;94913.78;5034739;28;20041;-81
2021/08/06 10:11:08;;;;;;;4.10;2.50;;;;;;;19.31;71.75;94917.75;5029874;28;20041;-80
2021/08/06 10:13:34;;;;;;;4.80;2.28;;;;;;;19.39;69.76;94927.50;5036073;28;20186;-78
2021/08/06 10:16:01;;;;;;;4.45;2.55;;;;;;;19.46;70.24;94925.03;5043315;28;20449;-79
2021/08/06 10:18:27;;;;;;;4.10;2.20;;;;;;;19.58;71.00;94918.09;5038148;28;20064;-77
2021/08/06 10:20:53;;;;;;;4.13;2.38;;;;;;;19.51;71.17;94916.00;5035110;28;20415;-81
2021/08/06 10:23:18;;;;;;;8.90;3.00;;;;;;;19.86;67.43;94921.53;5041017;28;20041;-87
2021/08/06 10:25:45;;;;;;;4.40;2.40;;;;;;;19.56;68.11;94927.19;5034601;28;20077;-81
2021/08/06 10:28:10;;;;;;;10.63;2.78;;;;;;;19.35;68.23;94921.28;5041860;28;20048;-81
2021/08/06 10:30:38;;;;;;;3.83;2.55;;;;;;;19.48;66.06;94928.16;5034144;28;20045;-80
2021/08/06 10:33:07;;;;;;;5.95;2.35;;;;;;;19.64;64.15;94919.38;5033429;28;20052;-79
2021/08/06 10:35:53;;;;;;;5.40;2.40;;;;;;;19.72;64.70;94915.78;5034022;28;20041;-79
2021/08/06 10:38:48;;;;;;;4.47;2.30;;;;;;;20.14;66.21;94899.31;5039869;28;20550;-79
2021/08/06 10:41:16;;;;;;;4.22;2.30;;;;;;;20.75;64.24;94894.59;5045226;28;20234;-81
2021/08/06 10:43:57;;;;;;;4.53;2.30;;;;;;;20.74;59.06;94895.72;5041328;28;20067;-82
2021/08/06 10:46:23;;;;;;;4.93;2.40;;;;;;;20.75;61.33;94900.69;5041816;28;20095;-81
2021/08/06 10:48:51;;;;;;;8.88;2.80;;;;;;;20.21;60.47;94888.81;5033590;28;20049;-84
2021/08/06 10:51:20;;;;;;;11.77;2.40;;;;;;;20.32;59.60;94896.28;5044999;28;20624;-82
2021/08/06 10:53:50;;;;;;;4.70;2.40;;;;;;;20.23;61.49;94891.13;5046028;28;20037;-82
2021/08/06 10:56:16;;;;;;;5.97;2.58;;;;;;;20.72;60.72;94880.00;5056818;28;20037;-84
2021/08/06 10:58:51;;;;;;;6.30;2.70;;;;;;;21.01;58.64;94877.94;5059681;28;20049;-80
2021/08/06 11:01:25;;;;;;;6.63;2.30;;;;;;;21.95;55.98;94877.75;5041949;28;20034;-82
2021/08/06 11:04:04;;;;;;;6.43;2.20;;;;;;;21.24;57.14;94880.66;5034956;28;20041;-81
2021/08/06 11:06:38;;;;;;;4.47;2.33;;;;;;;21.11;57.71;94884.63;5041145;28;20047;-81
2021/08/06 11:09:06;;;;;;;5.18;2.40;;;;;;;21.52;56.54;94884.25;5037137;28;20099;-82
2021/08/06 11:11:50;;;;;;;5.93;2.72;;;;;;;22.01;55.38;94874.75;5047938;28;20067;-80
2021/08/06 11:14:37;;;;;;;7.20;2.67;;;;;;;22.57;52.46;94868.75;5048659;28;20088;-82
2021/08/06 11:17:17;;;;;;;5.68;2.45;;;;;;;23.20;51.88;94879.91;5035999;28;20646;-82
2021/08/06 11:20:06;;;;;;;6.65;2.50;;;;;;;22.91;50.37;94882.22;5044177;28;20064;-80
2021/08/06 11:22:38;;;;;;;6.95;2.50;;;;;;;23.16;49.05;94871.06;5038547;28;20046;-80
2021/08/06 11:25:10;;;;;;;4.55;2.40;;;;;;;23.03;47.74;94867.81;5045532;28;20131;-83
2021/08/06 11:27:42;;;;;;;5.82;2.55;;;;;;;23.54;47.42;94869.16;5040620;28;20042;-80
2021/08/06 11:30:12;;;;;;;6.15;2.80;;;;;;;23.63;50.88;94850.84;5039348;28;20058;-81
2021/08/06 11:32:54;;;;;;;5.43;2.63;;;;;;;23.82;47.88;94865.19;5032435;28;20428;-82
2021/08/06 11:35:22;;;;;;;4.45;2.47;;;;;;;23.52;46.67;94866.06;5039447;28;20061;-82